Time;durP1;ratioP1;P1;durP2;ratioP2;P2;SDS_P1;SDS_P2;PMS_P1;PMS_P2;Temp;Humidity;BMP_temperature;BMP_pressure;BME280_temperature;BME280_humidity;BME280_pressure;Samples;Min_cycle;Max_cycle;Signal;HPM_P1;HPM_P2
2023/08/07 00:00:03;;;;;;;;;;;;;;;16.66;53.72;99791.56;5085551;28;1827;-60
2023/08/07 00:02:30;;;;;;;;;;;;;;;16.69;53.36;99791.78;5096139;28;1074;-60
2023/08/07 00:04:57;;;;;;;;;;;;;;;16.64;53.30;99783.63;5095493;28;1003;-59
2023/08/07 00:07:24;;;;;;;;;;;;;;;16.65;53.44;99790.75;5096256;28;1121;-60
2023/08/07 00:09:50;;;;;;;;;;;;;;;16.62;53.31;99783.13;5096406;28;1014;-60
2023/08/07 00:12:15;;;;;;;;;;;;;;;16.59;53.61;99775.44;5096195;28;912;-60
2023/08/07 00:14:41;;;;;;;;;;;;;;;16.60;53.59;99788.06;5096859;28;1130;-59
2023/08/07 00:17:08;;;;;;;;;;;;;;;16.56;53.61;99787.03;5096338;28;1964;-59
2023/08/07 00:19:33;;;;;;;;;;;;;;;16.55;53.49;99788.97;5095490;28;1140;-62
2023/08/07 00:21:59;;;;;;;;;;;;;;;16.60;53.59;99785.31;5096274;28;1089;-61
2023/08/07 00:24:24;;;;;;;;;;;;;;;16.58;53.58;99788.38;5095898;28;869;-61
2023/08/07 00:26:50;;;;;;;;;;;;;;;16.52;53.54;99775.00;5096219;28;1018;-61
2023/08/07 00:29:16;;;;;;;;;;;;;;;16.50;53.60;99777.25;5077529;28;1847;-61
2023/08/07 00:31:42;;;;;;;;;;;;;;;16.57;53.57;99772.19;5078056;28;1210;-61
2023/08/07 00:34:09;;;;;;;;;;;;;;;16.51;53.69;99773.38;5095669;28;1071;-61
2023/08/07 00:36:35;;;;;;;;;;;;;;;16.54;53.65;99773.63;5088482;28;1046;-61
2023/08/07 00:39:01;;;;;;;;;;;;;;;16.56;53.53;99776.06;5095884;28;1058;-62
2023/08/07 00:41:29;;;;;;;;;;;;;;;16.56;53.42;99773.31;5077839;28;1166;-62
2023/08/07 00:43:55;;;;;;;;;;;;;;;16.55;53.42;99790.88;5096507;28;1015;-62
2023/08/07 00:46:20;;;;;;;;;;;;;;;16.55;53.52;99790.88;5077499;28;1415;-61
2023/08/07 00:48:46;;;;;;;;;;;;;;;16.50;53.73;99788.22;5096133;28;1003;-62
2023/08/07 00:51:12;;;;;;;;;;;;;;;17.33;55.03;99804.22;5095640;28;1018;-61
2023/08/07 00:53:39;;;;;;;;;;;;;;;17.60;55.58;99790.50;5095977;28;1089;-61
2023/08/07 00:56:05;;;;;;;;;;;;;;;17.19;55.79;99798.69;5096276;28;1039;-61
2023/08/07 00:58:30;;;;;;;;;;;;;;;17.05;55.09;99798.66;5093661;28;2267;-61
2023/08/07 01:00:56;;;;;;;;;;;;;;;16.98;55.00;99809.22;5088055;28;1047;-61
2023/08/07 01:03:22;;;;;;;;;;;;;;;16.94;54.76;99817.22;5077930;28;1301;-60
2023/08/07 01:05:47;;;;;;;;;;;;;;;16.92;54.25;99817.50;5095995;28;1158;-60
2023/08/07 01:08:13;;;;;;;;;;;;;;;16.84;54.37;99814.63;5095648;28;1026;-61
2023/08/07 01:10:44;;;;;;;;;;;;;;;16.79;54.27;99831.16;5093793;28;1035;-60
2023/08/07 01:13:20;;;;;;;;;;;;;;;16.80;54.20;99828.09;5095261;28;1169;-60
2023/08/07 01:15:45;;;;;;;;;;;;;;;16.83;53.66;99829.44;5095874;28;1047;-60
2023/08/07 01:18:11;;;;;;;;;;;;;;;16.76;53.79;99824.34;5077719;28;1946;-60
2023/08/07 01:20:37;;;;;;;;;;;;;;;16.70;54.03;99831.00;5077795;28;1126;-59
2023/08/07 01:23:02;;;;;;;;;;;;;;;16.73;53.91;99825.75;5077546;28;1212;-61
2023/08/07 01:25:29;;;;;;;;;;;;;;;16.69;53.90;99830.22;5095211;28;1165;-60
2023/08/07 01:27:57;;;;;;;;;;;;;;;16.71;53.80;99833.47;5077837;28;1034;-61
2023/08/07 01:30:26;;;;;;;;;;;;;;;16.67;53.74;99843.41;5094179;28;2597;-61
2023/08/07 01:33:04;;;;;;;;;;;;;;;16.67;53.66;99845.34;5099642;28;1067;-61
2023/08/07 01:35:30;;;;;;;;;;;;;;;16.68;53.65;99856.03;5099239;28;1121;-61
2023/08/07 01:37:56;;;;;;;;;;;;;;;16.65;53.62;99859.38;5080781;28;1981;-61
2023/08/07 01:40:21;;;;;;;;;;;;;;;16.62;53.70;99868.19;5080684;28;1113;-61
2023/08/07 01:42:47;;;;;;;;;;;;;;;16.66;53.69;99871.16;5098979;28;1086;-61
2023/08/07 01:45:12;;;;;;;;;;;;;;;16.62;53.82;99884.66;5080738;28;1362;-61
2023/08/07 01:47:38;;;;;;;;;;;;;;;16.65;53.57;99880.50;5098764;28;1006;-61
2023/08/07 01:50:05;;;;;;;;;;;;;;;16.63;53.77;99891.78;5098956;28;1262;-61
2023/08/07 01:52:30;;;;;;;;;;;;;;;16.56;53.90;99900.38;5080905;28;1119;-62
2023/08/07 01:54:56;;;;;;;;;;;;;;;16.60;53.48;99892.38;5080422;28;1117;-62
2023/08/07 01:57:21;;;;;;;;;;;;;;;16.56;53.64;99897.66;5098769;28;1909;-61
2023/08/07 01:59:47;;;;;;;;;;;;;;;16.54;53.66;99910.81;5070532;28;2259;-61
2023/08/07 02:02:13;;;;;;;;;;;;;;;16.52;53.63;99904.00;5080309;28;1313;-61
2023/08/07 02:04:38;;;;;;;;;;;;;;;16.55;53.74;99906.97;5098341;28;1045;-61
2023/08/07 02:07:04;;;;;;;;;;;;;;;16.50;53.97;99906.22;5098527;28;1071;-61
2023/08/07 02:09:29;;;;;;;;;;;;;;;16.56;53.79;99905.88;5098326;28;987;-61
2023/08/07 02:11:55;;;;;;;;;;;;;;;16.51;53.71;99918.81;5098201;28;1081;-61
2023/08/07 02:14:20;;;;;;;;;;;;;;;17.20;55.29;99915.72;5080094;28;1078;-61
2023/08/07 02:16:46;;;;;;;;;;;;;;;17.56;55.78;99931.63;5080043;28;1978;-60
2023/08/07 02:19:12;;;;;;;;;;;;;;;17.09;55.99;99939.75;5080242;28;1219;-60
2023/08/07 02:21:37;;;;;;;;;;;;;;;17.01;55.43;99934.94;5098373;28;1090;-61
2023/08/07 02:24:03;;;;;;;;;;;;;;;17.02;54.62;99936.56;5097954;28;907;-61
2023/08/07 02:26:29;;;;;;;;;;;;;;;16.95;54.67;99941.63;5098238;28;1119;-61
2023/08/07 02:28:54;;;;;;;;;;;;;;;16.90;54.22;99940.59;5098271;28;1910;-60
2023/08/07 02:31:20;;;;;;;;;;;;;;;16.83;54.23;99947.50;5098164;28;1026;-61
2023/08/07 02:33:46;;;;;;;;;;;;;;;16.85;53.97;99940.63;5079773;28;1011;-61
2023/08/07 02:36:13;;;;;;;;;;;;;;;16.71;54.35;99943.25;5079725;28;1200;-61
2023/08/07 02:38:38;;;;;;;;;;;;;;;16.76;53.79;99956.13;5098106;28;1918;-60
2023/08/07 02:41:04;;;;;;;;;;;;;;;16.68;54.09;99960.34;5097555;28;1011;-61
2023/08/07 02:43:32;;;;;;;;;;;;;;;16.70;53.80;99968.28;5098012;28;1134;-60
2023/08/07 02:45:58;;;;;;;;;;;;;;;16.75;53.68;99968.22;5079915;28;1094;-60
2023/08/07 02:48:25;;;;;;;;;;;;;;;16.67;53.58;99958.69;5071320;28;1094;-61
2023/08/07 02:50:51;;;;;;;;;;;;;;;16.60;53.81;99982.94;5097838;28;1046;-60
2023/08/07 02:53:17;;;;;;;;;;;;;;;16.67;53.60;99991.63;5079620;28;1288;-60
2023/08/07 02:55:43;;;;;;;;;;;;;;;16.58;53.82;99988.72;5079961;28;1216;-60
2023/08/07 02:58:09;;;;;;;;;;;;;;;16.62;53.77;99983.47;5097121;28;2322;-60
2023/08/07 03:00:35;;;;;;;;;;;;;;;16.56;53.88;99979.16;5088461;28;2581;-60
2023/08/07 03:03:00;;;;;;;;;;;;;;;16.56;53.58;99965.41;5093193;28;995;-61
2023/08/07 03:05:26;;;;;;;;;;;;;;;16.52;53.76;99969.84;5097063;28;1070;-61
2023/08/07 03:07:52;;;;;;;;;;;;;;;16.53;53.62;99975.06;5097067;28;1153;-61
2023/08/07 03:10:17;;;;;;;;;;;;;;;16.49;53.73;99978.69;5097374;28;1122;-61
2023/08/07 03:12:43;;;;;;;;;;;;;;;16.53;53.48;99990.72;5097135;28;1007;-61
2023/08/07 03:15:09;;;;;;;;;;;;;;;17.32;55.50;99994.91;5097218;28;1023;-58
2023/08/07 03:17:35;;;;;;;;;;;;;;;17.54;55.63;99991.56;5078826;28;1967;-56
2023/08/07 03:20:01;;;;;;;;;;;;;;;17.12;55.91;99990.53;5097290;28;1293;-58
2023/08/07 03:22:26;;;;;;;;;;;;;;;17.02;55.24;99977.78;5078391;28;1125;-58
2023/08/07 03:24:52;;;;;;;;;;;;;;;16.99;54.98;99995.66;5078660;28;1180;-57
2023/08/07 03:27:18;;;;;;;;;;;;;;;16.93;54.41;100000.41;5096527;28;1022;-58
2023/08/07 03:29:43;;;;;;;;;;;;;;;16.86;54.65;99999.91;5078278;28;2652;-57
2023/08/07 03:32:09;;;;;;;;;;;;;;;16.80;54.50;99992.84;5096700;28;1065;-56
2023/08/07 03:34:36;;;;;;;;;;;;;;;16.78;54.38;99992.34;5078978;28;1343;-57
2023/08/07 03:37:02;;;;;;;;;;;;;;;16.75;54.32;99993.72;5078330;28;1910;-56
2023/08/07 03:39:28;;;;;;;;;;;;;;;16.74;54.19;99997.56;5078429;28;1267;-56
2023/08/07 03:41:53;;;;;;;;;;;;;;;16.72;53.91;99999.81;5078514;28;1320;-56
2023/08/07 03:44:19;;;;;;;;;;;;;;;16.69;54.07;100005.06;5079060;28;1127;-49
2023/08/07 03:46:45;;;;;;;;;;;;;;;16.64;54.04;99997.72;5078228;28;1130;-53
2023/08/07 03:49:10;;;;;;;;;;;;;;;16.65;53.62;100002.09;5096098;28;1123;-56
2023/08/07 03:51:36;;;;;;;;;;;;;;;16.62;55.19;100002.69;5090726;28;1475;-57
2023/08/07 03:54:02;;;;;;;;;;;;;;;16.72;55.96;100016.28;5076253;28;1314;-62
2023/08/07 03:56:28;;;;;;;;;;;;;;;16.64;55.67;100016.13;5084756;28;1046;-64
2023/08/07 03:58:54;;;;;;;;;;;;;;;16.53;55.47;100018.97;5062873;28;1988;-59
2023/08/07 04:01:22;;;;;;;;;;;;;;;16.54;55.07;100008.81;5066472;28;1176;-60
2023/08/07 04:03:48;;;;;;;;;;;;;;;16.54;54.87;100019.81;5067785;28;1319;-60
2023/08/07 04:06:15;;;;;;;;;;;;;;;16.51;54.64;100003.91;5065256;28;1399;-59
2023/08/07 04:08:42;;;;;;;;;;;;;;;16.49;54.80;100008.88;5090579;28;952;-56
2023/08/07 04:11:08;;;;;;;;;;;;;;;16.66;55.00;100011.16;5076162;28;991;-57
2023/08/07 04:13:34;;;;;;;;;;;;;;;16.67;54.46;100002.63;5057594;28;1328;-59
2023/08/07 04:16:04;;;;;;;;;;;;;;;16.58;54.44;100007.13;5076300;28;1086;-59
2023/08/07 04:18:30;;;;;;;;;;;;;;;16.65;54.35;99999.34;5088727;28;1921;-58
2023/08/07 04:20:55;;;;;;;;;;;;;;;16.62;54.33;100002.69;5058191;28;1427;-60
2023/08/07 04:23:21;;;;;;;;;;;;;;;16.59;54.22;100009.59;5073209;28;1116;-59
2023/08/07 04:25:47;;;;;;;;;;;;;;;16.62;54.19;100010.94;5068791;28;1122;-59
2023/08/07 04:28:13;;;;;;;;;;;;;;;16.55;54.04;100007.69;5073857;28;1066;-59
2023/08/07 04:30:38;;;;;;;;;;;;;;;16.52;53.99;100006.38;5083172;28;2132;-59
2023/08/07 04:33:04;;;;;;;;;;;;;;;16.50;54.05;100007.78;5080617;28;1067;-57
2023/08/07 04:35:30;;;;;;;;;;;;;;;16.51;54.24;100003.91;5092436;28;2334;-59
2023/08/07 04:37:56;;;;;;;;;;;;;;;16.53;54.07;100004.44;5082453;28;1918;-60
2023/08/07 04:40:21;;;;;;;;;;;;;;;16.50;53.95;99999.53;5090382;28;1308;-64
2023/08/07 04:42:48;;;;;;;;;;;;;;;16.52;54.03;100005.53;5091413;28;1221;-59
2023/08/07 04:45:14;;;;;;;;;;;;;;;16.52;54.01;100013.78;5075886;28;1015;-56
2023/08/07 04:47:40;;;;;;;;;;;;;;;16.73;55.80;100011.59;5075986;28;1015;-58
2023/08/07 04:50:05;;;;;;;;;;;;;;;17.36;54.93;100007.78;5075693;28;997;-57
2023/08/07 04:52:31;;;;;;;;;;;;;;;16.81;53.78;100004.66;5075871;28;1020;-58
2023/08/07 04:54:57;;;;;;;;;;;;;;;16.77;53.39;100013.50;5075709;28;1011;-57
2023/08/07 04:57:22;;;;;;;;;;;;;;;17.66;54.81;100000.16;5079272;28;2005;-58
2023/08/07 04:59:48;;;;;;;;;;;;;;;17.14;53.42;100004.78;5080720;28;1130;-56
2023/08/07 05:02:13;;;;;;;;;;;;;;;17.01;51.88;99998.94;5084375;28;1392;-56
2023/08/07 05:04:39;;;;;;;;;;;;;;;16.91;50.39;100002.63;5093650;28;947;-56
2023/08/07 05:07:04;;;;;;;;;;;;;;;17.49;52.47;100008.13;5097112;28;1420;-60
2023/08/07 05:09:30;;;;;;;;;;;;;;;17.18;51.37;100000.34;5099483;28;1062;-59
2023/08/07 05:11:56;;;;;;;;;;;;;;;17.02;50.45;100013.47;5093969;28;1095;-57
2023/08/07 05:14:21;;;;;;;;;;;;;;;17.00;49.37;100013.78;5085776;28;1119;-57
2023/08/07 05:16:47;;;;;;;;;;;;;;;17.05;49.43;100027.41;5099772;28;1898;-58
2023/08/07 05:19:13;;;;;;;;;;;;;;;17.54;51.07;100025.34;5095180;28;1362;-58
2023/08/07 05:21:38;;;;;;;;;;;;;;;17.19;50.01;100032.19;5097060;28;1296;-58
2023/08/07 05:24:04;;;;;;;;;;;;;;;17.16;49.39;100046.53;5099841;28;1280;-58
2023/08/07 05:26:30;;;;;;;;;;;;;;;17.18;48.26;100055.28;5097241;28;932;-56
2023/08/07 05:28:57;;;;;;;;;;;;;;;17.11;47.88;100058.41;5099834;28;1138;-53
2023/08/07 05:31:23;;;;;;;;;;;;;;;17.18;47.23;100055.28;5099016;28;1035;-58
2023/08/07 05:33:49;;;;;;;;;;;;;;;17.73;48.83;100055.59;5086332;28;1088;-57
2023/08/07 05:36:14;;;;;;;;;;;;;;;17.45;49.50;100052.72;5090374;28;994;-59
2023/08/07 05:38:40;;;;;;;;;;;;;;;17.31;48.80;100048.25;5098144;28;1917;-58
2023/08/07 05:41:06;;;;;;;;;;;;;;;17.37;47.91;100047.06;5085506;28;1047;-57
2023/08/07 05:43:31;;;;;;;;;;;;;;;17.20;47.68;100042.09;5086291;28;1110;-57
2023/08/07 05:45:57;;;;;;;;;;;;;;;17.25;47.11;100040.09;5098542;28;1002;-59
2023/08/07 05:48:22;;;;;;;;;;;;;;;17.18;46.96;100038.81;5089472;28;1094;-58
2023/08/07 05:50:48;;;;;;;;;;;;;;;17.18;46.36;100047.88;5098231;28;920;-58
2023/08/07 05:53:14;;;;;;;;;;;;;;;17.82;48.62;100063.16;5089240;28;1427;-55
2023/08/07 05:55:41;;;;;;;;;;;;;;;17.56;48.22;100080.88;5095306;28;1058;-51
2023/08/07 05:58:06;;;;;;;;;;;;;;;17.38;47.84;100077.00;5086874;28;1972;-56
2023/08/07 06:00:32;;;;;;;;;;;;;;;17.37;47.04;100080.84;5082128;28;1016;-58
2023/08/07 06:02:58;;;;;;;;;;;;;;;18.19;48.44;100075.22;5089977;28;925;-59
2023/08/07 06:05:24;;;;;;;;;;;;;;;17.74;48.69;100084.72;5094820;28;1113;-57
2023/08/07 06:07:49;;;;;;;;;;;;;;;17.55;48.26;100075.66;5088010;28;1106;-56
2023/08/07 06:10:15;;;;;;;;;;;;;;;17.40;47.55;100091.28;5081707;28;1090;-58
2023/08/07 06:12:41;;;;;;;;;;;;;;;17.46;47.20;100083.78;5080258;28;1055;-59
2023/08/07 06:15:06;;;;;;;;;;;;;;;17.43;46.74;100079.69;5085831;28;1134;-58
2023/08/07 06:17:32;;;;;;;;;;;;;;;17.37;46.70;100091.84;5096739;28;1983;-57
2023/08/07 06:19:57;;;;;;;;;;;;;;;17.34;46.49;100088.88;5094121;28;1138;-53
2023/08/07 06:22:23;;;;;;;;;;;;;;;17.40;46.11;100088.53;5095451;28;1181;-53
2023/08/07 06:24:49;;;;;;;;;;;;;;;18.20;48.31;100090.63;5088560;28;1197;-55
2023/08/07 06:27:14;;;;;;;;;;;;;;;17.78;48.21;100096.78;5080956;28;1000;-56
2023/08/07 06:29:40;;;;;;;;;;;;;;;17.66;47.71;100090.09;5097748;28;1244;-57
2023/08/07 06:32:06;;;;;;;;;;;;;;;17.55;47.06;100089.41;5094941;28;1060;-56
2023/08/07 06:34:32;;;;;;;;;;;;;;;17.51;47.03;100085.63;5094167;28;1509;-57
2023/08/07 06:36:57;;;;;;;;;;;;;;;17.52;46.68;100090.81;5096010;28;1922;-58
2023/08/07 06:39:23;;;;;;;;;;;;;;;17.52;46.37;100096.31;5095162;28;1213;-58
2023/08/07 06:41:48;;;;;;;;;;;;;;;17.48;46.29;100094.47;5097800;28;1078;-58
2023/08/07 06:44:18;;;;;;;;;;;;;;;18.29;47.68;100094.34;5071209;28;1115;-58
2023/08/07 06:46:43;;;;;;;;;;;;;;;17.83;48.11;100093.13;5097085;28;1331;-54
2023/08/07 06:49:09;;;;;;;;;;;;;;;17.75;47.44;100096.53;5092051;28;1312;-55
2023/08/07 06:51:34;;;;;;;;;;;;;;;17.75;46.80;100108.38;5096773;28;1058;-54
2023/08/07 06:54:00;;;;;;;;;;;;;;;17.71;46.45;100128.50;5096597;28;1123;-56
2023/08/07 06:56:25;;;;;;;;;;;;;;;17.64;46.25;100123.34;5096847;28;953;-57
2023/08/07 06:58:51;;;;;;;;;;;;;;;17.64;46.05;100120.59;5090627;28;1917;-56
2023/08/07 07:01:17;;;;;;;;;;;;;;;17.56;45.73;100121.31;5097191;28;1327;-55
2023/08/07 07:03:42;;;;;;;;;;;;;;;17.57;45.53;100125.66;5082319;28;1240;-57
2023/08/07 07:06:08;;;;;;;;;;;;;;;17.49;45.93;100131.81;5090394;28;1284;-53
2023/08/07 07:08:34;;;;;;;;;;;;;;;17.48;45.97;100127.44;5094855;28;1190;-56
2023/08/07 07:10:59;;;;;;;;;;;;;;;17.58;45.34;100124.56;5083007;28;1185;-55
2023/08/07 07:13:25;;;;;;;;;;;;;;;17.56;45.68;100126.78;5093128;28;1111;-58
2023/08/07 07:15:54;;;;;;;;;;;;;;;17.43;45.59;100128.31;5092877;28;1268;-55
2023/08/07 07:18:19;;;;;;;;;;;;;;;17.43;45.76;100114.56;5087641;28;1906;-58
2023/08/07 07:20:45;;;;;;;;;;;;;;;17.47;45.57;100123.06;5092704;28;1276;-56
2023/08/07 07:23:10;;;;;;;;;;;;;;;17.50;45.51;100127.97;5094969;28;1292;-56
2023/08/07 07:25:36;;;;;;;;;;;;;;;17.56;46.12;100141.34;5096589;28;1338;-52
2023/08/07 07:28:02;;;;;;;;;;;;;;;17.99;47.52;100132.22;5086285;28;1323;-56
2023/08/07 07:30:27;;;;;;;;;;;;;;;17.77;46.99;100147.38;5087922;28;1261;-55
2023/08/07 07:32:53;;;;;;;;;;;;;;;17.72;46.62;100136.44;5091228;28;987;-57
2023/08/07 07:35:18;;;;;;;;;;;;;;;17.67;46.64;100133.78;5087017;28;1107;-52
2023/08/07 07:37:44;;;;;;;;;;;;;;;17.62;46.28;100123.66;5082713;28;1894;-56
2023/08/07 07:40:10;;;;;;;;;;;;;;;17.61;46.19;100126.72;5096022;28;1245;-56
2023/08/07 07:42:35;;;;;;;;;;;;;;;17.57;45.99;100137.50;5092009;28;1315;-56
2023/08/07 07:45:01;;;;;;;;;;;;;;;17.61;45.98;100143.19;5089561;28;1308;-57
2023/08/07 07:47:27;;;;;;;;;;;;;;;17.66;45.51;100132.13;5085916;28;1146;-57
2023/08/07 07:50:03;;;;;;;;;;;;;;;17.52;45.63;100132.06;5075990;28;1052;-59
2023/08/07 07:52:29;;;;;;;;;;;;;;;17.52;45.57;100125.75;5087423;28;1023;-57
2023/08/07 07:54:54;;;;;;;;;;;;;;;17.56;45.61;100121.31;5094191;28;1148;-53
2023/08/07 07:57:20;;;;;;;;;;;;;;;17.66;45.27;100129.38;5095876;28;1972;-57
2023/08/07 07:59:46;;;;;;;;;;;;;;;17.57;45.40;100125.66;5092192;28;1203;-56
2023/08/07 08:02:11;;;;;;;;;;;;;;;17.51;45.38;100113.13;5090829;28;1221;-55
2023/08/07 08:04:37;;;;;;;;;;;;;;;17.59;45.09;100116.00;5091778;28;1146;-56
2023/08/07 08:07:03;;;;;;;;;;;;;;;17.53;45.54;100117.19;5096065;28;1268;-57
2023/08/07 08:09:29;;;;;;;;;;;;;;;17.45;45.44;100126.09;5075941;28;986;-54
2023/08/07 08:11:54;;;;;;;;;;;;;;;17.55;45.28;100120.47;5091590;28;1322;-56
2023/08/07 08:14:20;;;;;;;;;;;;;;;17.44;45.22;100118.97;5092328;28;1102;-57
2023/08/07 08:16:45;;;;;;;;;;;;;;;17.54;45.28;100118.00;5095257;28;1340;-57
2023/08/07 08:19:11;;;;;;;;;;;;;;;17.53;45.49;100130.13;5083635;28;1988;-56
2023/08/07 08:21:37;;;;;;;;;;;;;;;17.44;45.53;100125.28;5095154;28;1439;-52
2023/08/07 08:24:02;;;;;;;;;;;;;;;17.50;45.36;100127.97;5086000;28;1161;-55
2023/08/07 08:26:28;;;;;;;;;;;;;;;17.45;45.61;100121.41;5095577;28;1525;-53
2023/08/07 08:28:53;;;;;;;;;;;;;;;17.50;45.51;100119.72;5096819;28;1186;-56
2023/08/07 08:31:21;;;;;;;;;;;;;;;17.54;45.54;100137.25;5096252;28;1070;-56
2023/08/07 08:33:46;;;;;;;;;;;;;;;17.54;45.52;100129.00;5087421;28;908;-57
2023/08/07 08:36:12;;;;;;;;;;;;;;;17.52;45.51;100134.00;5093485;28;1168;-57
2023/08/07 08:38:38;;;;;;;;;;;;;;;17.58;45.15;100141.06;5088794;28;1988;-57
2023/08/07 08:41:03;;;;;;;;;;;;;;;17.51;45.47;100146.09;5093332;28;1249;-57
2023/08/07 08:43:29;;;;;;;;;;;;;;;17.51;45.14;100146.09;5071816;28;1222;-57
2023/08/07 08:45:55;;;;;;;;;;;;;;;17.50;45.54;100147.19;5083803;28;1082;-57
2023/08/07 08:48:21;;;;;;;;;;;;;;;17.49;45.52;100142.81;5062694;28;1012;-57
2023/08/07 08:50:49;;;;;;;;;;;;;;;17.49;45.29;100149.16;5062030;28;1224;-57
2023/08/07 08:53:15;;;;;;;;;;;;;;;17.54;45.41;100140.00;5072033;28;1182;-57
2023/08/07 08:55:43;;;;;;;;;;;;;;;17.45;45.66;100135.16;5083443;28;1254;-57
2023/08/07 08:58:08;;;;;;;;;;;;;;;17.46;45.67;100136.00;5076500;28;1902;-57
2023/08/07 09:00:34;;;;;;;;;;;;;;;18.36;46.60;100132.50;5095893;28;1632;-57
2023/08/07 09:03:01;;;;;;;;;;;;;;;17.99;46.96;100137.72;5076084;28;1245;-57
2023/08/07 09:05:26;;;;;;;;;;;;;;;17.85;46.72;100142.31;5098861;28;1039;-57
2023/08/07 09:07:52;;;;;;;;;;;;;;;17.69;46.50;100131.53;5080946;28;1185;-54
2023/08/07 09:10:18;;;;;;;;;;;;;;;17.75;46.24;100129.53;5097761;28;1328;-56
2023/08/07 09:13:05;;;;;;;;;;;;;;;17.76;46.09;100134.72;5098172;28;1413;-57
2023/08/07 09:15:33;;;;;;;;;;;;;;;17.71;45.84;100140.31;5094844;28;1521;-59
2023/08/07 09:17:59;;;;;;;;;;;;;;;17.77;45.65;100149.31;5062371;28;1979;-58
2023/08/07 09:20:25;;;;;;;;;;;;;;;17.69;45.85;100148.03;5079229;28;1318;-58
2023/08/07 09:22:51;;;;;;;;;;;;;;;17.64;45.88;100156.34;5080597;28;881;-58
2023/08/07 09:25:26;;;;;;;;;;;;;;;17.64;45.57;100155.53;5097776;28;1115;-57
2023/08/07 09:27:51;;;;;;;;;;;;;;;17.70;45.56;100144.19;5099640;28;1453;-58
2023/08/07 09:30:17;;;;;;;;;;;;;;;17.61;45.69;100152.28;5098706;28;1316;-57
2023/08/07 09:32:43;;;;;;;;;;;;;;;17.63;45.56;100152.00;5080086;28;1178;-56
2023/08/07 09:35:10;;;;;;;;;;;;;;;17.70;45.56;100146.94;5083132;28;1320;-57
2023/08/07 09:37:36;;;;;;;;;;;;;;;17.63;45.38;100149.25;5095697;28;1906;-57
2023/08/07 09:40:02;;;;;;;;;;;;;;;17.63;45.48;100149.25;5098764;28;1049;-58
2023/08/07 09:42:30;;;;;;;;;;;;;;;17.63;45.58;100154.72;5099039;28;1328;-57
2023/08/07 09:44:55;;;;;;;;;;;;;;;17.67;45.47;100158.53;5098283;28;1296;-59
2023/08/07 09:47:21;;;;;;;;;;;;;;;17.69;45.24;100170.03;5090664;28;1319;-59
2023/08/07 09:49:47;;;;;;;;;;;;;;;17.66;45.31;100164.31;5089873;28;1277;-57
2023/08/07 09:52:14;;;;;;;;;;;;;;;17.65;45.40;100162.69;5098367;28;1295;-60
2023/08/07 09:54:40;;;;;;;;;;;;;;;17.57;45.57;100144.91;5098459;28;1276;-59
2023/08/07 09:57:06;;;;;;;;;;;;;;;17.64;45.27;100159.09;5098784;28;1913;-56
2023/08/07 09:59:33;;;;;;;;;;;;;;;17.66;45.33;100154.13;5098322;28;1331;-58
2023/08/07 10:01:59;;;;;;;;;;;;;;;17.65;45.36;100147.00;5098214;28;1023;-58
2023/08/07 10:04:24;;;;;;;;;;;;;;;17.67;45.39;100143.94;5073791;28;929;-60
2023/08/07 10:06:50;;;;;;;;;;;;;;;17.68;45.24;100157.41;5097396;28;1018;-61
2023/08/07 10:09:16;;;;;;;;;;;;;;;17.70;45.25;100157.13;5079408;28;1127;-58
2023/08/07 10:11:41;;;;;;;;;;;;;;;17.69;45.24;100153.53;5081799;28;1137;-57
2023/08/07 10:14:08;;;;;;;;;;;;;;;17.62;45.38;100147.59;5087292;28;1107;-57
2023/08/07 10:16:39;;;;;;;;;;;;;;;17.68;45.48;100151.91;5093771;28;1035;-59
2023/08/07 10:19:05;;;;;;;;;;;;;;;17.61;45.49;100154.19;5088677;28;1981;-57
2023/08/07 10:21:30;;;;;;;;;;;;;;;17.66;45.33;100148.63;5094776;28;1086;-57
2023/08/07 10:23:56;;;;;;;;;;;;;;;17.65;45.42;100144.25;5070540;28;1114;-57
2023/08/07 10:26:22;;;;;;;;;;;;;;;17.72;45.18;100141.94;5081309;28;1091;-57
2023/08/07 10:28:47;;;;;;;;;;;;;;;17.71;45.36;100145.00;5085824;28;1244;-57
2023/08/07 10:31:13;;;;;;;;;;;;;;;17.72;45.27;100149.38;5096877;28;1074;-59
2023/08/07 10:33:38;;;;;;;;;;;;;;;17.66;45.33;100148.63;5096065;28;1265;-58
2023/08/07 10:36:08;;;;;;;;;;;;;;;17.70;45.25;100146.94;5096747;28;991;-58
2023/08/07 10:38:33;;;;;;;;;;;;;;;17.69;45.65;100155.47;5095515;28;1905;-58
2023/08/07 10:41:00;;;;;;;;;;;;;;;17.67;45.66;100144.78;5058593;28;1456;-58
2023/08/07 10:43:27;;;;;;;;;;;;;;;17.71;45.41;100161.50;5091546;28;1015;-58
2023/08/07 10:45:53;;;;;;;;;;;;;;;17.68;45.53;100157.41;5085910;28;1026;-57
2023/08/07 10:48:19;;;;;;;;;;;;;;;17.70;45.17;100149.69;5082030;28;1046;-57
2023/08/07 10:50:51;;;;;;;;;;;;;;;17.68;45.25;100151.09;5076596;28;1007;-57
2023/08/07 10:53:21;;;;;;;;;;;;;;;17.75;45.20;100148.78;5079460;28;929;-57
2023/08/07 10:55:47;;;;;;;;;;;;;;;17.72;45.48;100149.38;5087860;28;1548;-57
2023/08/07 10:58:31;;;;;;;;;;;;;;;17.71;45.44;100145.81;5087099;28;1983;-56
2023/08/07 11:01:12;;;;;;;;;;;;;;;17.71;45.39;100147.75;5095599;28;1212;-57
2023/08/07 11:03:39;;;;;;;;;;;;;;;17.76;45.30;100153.97;5094802;28;1034;-56
2023/08/07 11:06:05;;;;;;;;;;;;;;;17.76;45.34;100158.69;5069137;28;1103;-56
2023/08/07 11:08:31;;;;;;;;;;;;;;;17.75;45.35;100166.13;5096781;28;1390;-52
2023/08/07 11:10:57;;;;;;;;;;;;;;;17.74;45.40;100161.72;5078920;28;995;-48
2023/08/07 11:13:22;;;;;;;;;;;;;;;17.76;45.45;100170.47;5079137;28;1311;-51
2023/08/07 11:15:48;;;;;;;;;;;;;;;17.78;45.11;100162.78;5091206;28;1142;-50
2023/08/07 11:18:14;;;;;;;;;;;;;;;17.72;45.31;100165.88;5074934;28;1898;-48
2023/08/07 11:20:39;;;;;;;;;;;;;;;17.72;45.49;100157.63;5065547;28;1075;-49
2023/08/07 11:23:06;;;;;;;;;;;;;;;17.67;45.54;100155.78;5077379;28;1062;-53
2023/08/07 11:25:31;;;;;;;;;;;;;;;17.70;45.49;100160.69;5086680;28;1388;-53
2023/08/07 11:27:57;;;;;;;;;;;;;;;17.76;45.44;100153.19;5090153;28;1296;-54
2023/08/07 11:30:22;;;;;;;;;;;;;;;17.76;45.57;100148.47;5089815;28;1094;-52
2023/08/07 11:32:48;;;;;;;;;;;;;;;17.77;45.52;100161.13;5096427;28;1066;-57
2023/08/07 11:35:17;;;;;;;;;;;;;;;17.81;45.46;100160.53;5096291;28;1327;-56
2023/08/07 11:37:47;;;;;;;;;;;;;;;17.73;45.50;100159.28;5077510;28;1968;-58
2023/08/07 11:40:13;;;;;;;;;;;;;;;17.75;45.48;100157.03;5089462;28;1049;-55
2023/08/07 11:42:38;;;;;;;;;;;;;;;17.71;45.67;100156.00;5096025;28;1240;-57
2023/08/07 11:45:04;;;;;;;;;;;;;;;17.76;45.62;100164.97;5077854;28;1320;-56
2023/08/07 11:47:30;;;;;;;;;;;;;;;17.75;45.70;100152.38;5095801;28;1131;-58
2023/08/07 11:49:55;;;;;;;;;;;;;;;17.85;45.18;100156.06;5096450;28;1323;-55
2023/08/07 11:52:22;;;;;;;;;;;;;;;17.81;45.47;100150.38;5095105;28;1314;-55
2023/08/07 11:54:49;;;;;;;;;;;;;;;17.80;45.34;100134.97;5078697;28;1178;-53
2023/08/07 11:57:15;;;;;;;;;;;;;;;17.82;45.13;100145.66;5096681;28;1897;-55
2023/08/07 11:59:40;;;;;;;;;;;;;;;17.76;45.59;100148.47;5088858;28;1350;-53
2023/08/07 12:02:11;;;;;;;;;;;;;;;17.87;45.30;100134.59;5093759;28;1007;-54
2023/08/07 12:04:37;;;;;;;;;;;;;;;17.85;45.44;100139.56;5091834;28;1304;-56
2023/08/07 12:07:02;;;;;;;;;;;;;;;17.77;45.46;100150.13;5090753;28;1153;-53
2023/08/07 12:09:28;;;;;;;;;;;;;;;17.82;45.35;100140.97;5096094;28;1350;-55
2023/08/07 12:11:57;;;;;;;;;;;;;;;17.74;45.33;100131.47;5087125;28;1023;-55
2023/08/07 12:14:23;;;;;;;;;;;;;;;17.83;45.23;100141.81;5072067;28;1032;-54
2023/08/07 12:16:49;;;;;;;;;;;;;;;17.84;45.48;100144.25;5083656;28;1144;-54
2023/08/07 12:19:16;;;;;;;;;;;;;;;17.78;45.51;100151.78;5083724;28;1922;-56
2023/08/07 12:21:41;;;;;;;;;;;;;;;17.82;45.56;100151.16;5095998;28;1158;-55
2023/08/07 12:24:07;;;;;;;;;;;;;;;17.77;45.54;100144.63;5096045;28;1386;-56
2023/08/07 12:26:32;;;;;;;;;;;;;;;17.81;45.67;100135.78;5095876;28;1288;-45
2023/08/07 12:28:58;;;;;;;;;;;;;;;17.84;45.57;100136.00;5092487;28;986;-53
2023/08/07 12:31:23;;;;;;;;;;;;;;;17.83;45.59;100128.06;5095539;28;1276;-55
2023/08/07 12:33:49;;;;;;;;;;;;;;;17.84;45.59;100126.94;5096208;28;1300;-56
2023/08/07 12:36:14;;;;;;;;;;;;;;;17.90;45.35;100128.50;5095637;28;1114;-56
2023/08/07 12:38:40;;;;;;;;;;;;;;;17.83;45.62;100125.31;5093198;28;1996;-56
2023/08/07 12:41:06;;;;;;;;;;;;;;;17.87;45.55;100120.84;5084661;28;861;-55
2023/08/07 12:43:31;;;;;;;;;;;;;;;17.86;45.42;100127.47;5070079;28;1094;-54